Time;durP1;ratioP1;P1;durP2;ratioP2;P2;SDS_P1;SDS_P2;PMS_P1;PMS_P2;Temp;Humidity;BMP_temperature;BMP_pressure;BME280_temperature;BME280_humidity;BME280_pressure;Samples;Min_cycle;Max_cycle;Signal;HPM_P1;HPM_P2
2022/08/24 00:00:37;;;;;;;;;;;23.50;70.00;;;;;;5053160;28;19951;-67
2022/08/24 00:03:02;;;;;;;;;;;23.40;70.10;;;;;;5054350;28;20615;-67
2022/08/24 00:05:28;;;;;;;;;;;23.40;70.10;;;;;;5048392;28;20416;-67
2022/08/24 00:07:54;;;;;;;;;;;23.40;70.30;;;;;;5048464;28;19913;-67
2022/08/24 00:10:20;;;;;;;;;;;23.40;70.30;;;;;;5048315;28;19921;-67
2022/08/24 00:12:45;;;;;;;;;;;23.40;70.60;;;;;;5048140;28;20253;-67
2022/08/24 00:15:12;;;;;;;;;;;23.30;70.80;;;;;;5047502;28;19912;-67
2022/08/24 00:17:38;;;;;;;;;;;23.30;70.40;;;;;;5051910;28;19984;-67
2022/08/24 00:20:05;;;;;;;;;;;23.30;70.40;;;;;;5051320;28;19969;-68
2022/08/24 00:22:30;;;;;;;;;;;23.30;70.70;;;;;;5047437;28;19909;-67
2022/08/24 00:24:56;;;;;;;;;;;23.20;70.60;;;;;;5047749;28;19919;-67
2022/08/24 00:27:21;;;;;;;;;;;23.20;70.90;;;;;;5048013;28;19917;-67
2022/08/24 00:29:48;;;;;;;;;;;23.10;70.70;;;;;;5050139;28;19916;-67
2022/08/24 00:32:13;;;;;;;;;;;23.10;70.80;;;;;;5049747;28;19917;-67
2022/08/24 00:34:39;;;;;;;;;;;23.10;71.00;;;;;;5047287;28;19942;-67
2022/08/24 00:37:04;;;;;;;;;;;23.10;71.60;;;;;;5047651;28;19913;-67
2022/08/24 00:39:30;;;;;;;;;;;23.10;71.60;;;;;;5048482;28;19944;-67
2022/08/24 00:41:55;;;;;;;;;;;23.00;71.40;;;;;;5047529;28;20557;-67
2022/08/24 00:44:21;;;;;;;;;;;23.00;71.00;;;;;;5056491;28;19912;-67
2022/08/24 00:46:56;;;;;;;;;;;23.00;71.40;;;;;;5053821;28;19916;-67
2022/08/24 00:49:24;;;;;;;;;;;23.00;71.60;;;;;;5053071;28;19959;-67
2022/08/24 00:51:58;;;;;;;;;;;22.90;71.80;;;;;;5047029;28;19913;-67
2022/08/24 00:54:25;;;;;;;;;;;22.90;72.00;;;;;;5047219;28;20247;-67
2022/08/24 00:56:54;;;;;;;;;;;22.90;72.30;;;;;;5047189;28;20382;-68
2022/08/24 00:59:21;;;;;;;;;;;22.80;72.20;;;;;;5040514;28;19916;-67
2022/08/24 01:01:48;;;;;;;;;;;22.80;72.30;;;;;;5052455;28;20424;-67
2022/08/24 01:04:17;;;;;;;;;;;22.80;72.00;;;;;;5049176;28;19912;-67
2022/08/24 01:06:42;;;;;;;;;;;22.80;72.30;;;;;;5046465;28;19924;-67
2022/08/24 01:09:08;;;;;;;;;;;22.70;72.20;;;;;;5036240;28;19913;-67
2022/08/24 01:11:34;;;;;;;;;;;22.70;72.40;;;;;;5049899;28;19912;-67
2022/08/24 01:14:01;;;;;;;;;;;22.70;72.40;;;;;;5046919;28;19913;-67
2022/08/24 01:19:26;;;;;;;;;;;22.70;72.90;;;;;;5055446;28;19920;-67
2022/08/24 01:22:12;;;;;;;;;;;22.60;73.10;;;;;;5058553;28;20722;-67
2022/08/24 01:24:37;;;;;;;;;;;22.60;72.90;;;;;;5054674;28;19991;-67
2022/08/24 01:27:04;;;;;;;;;;;22.60;73.20;;;;;;5065797;28;20492;-67
2022/08/24 01:29:30;;;;;;;;;;;22.50;72.80;;;;;;5056063;28;20337;-67
2022/08/24 01:31:56;;;;;;;;;;;22.50;73.10;;;;;;5051945;28;19938;-68
2022/08/24 01:34:21;;;;;;;;;;;22.50;73.20;;;;;;5064872;28;20284;-67
2022/08/24 01:36:49;;;;;;;;;;;22.50;73.30;;;;;;5047075;28;19981;-67
2022/08/24 01:39:26;;;;;;;;;;;22.50;73.40;;;;;;5065003;28;19976;-67
2022/08/24 01:41:52;;;;;;;;;;;22.40;73.60;;;;;;5048705;28;19956;-67
2022/08/24 01:44:19;;;;;;;;;;;22.40;73.70;;;;;;5045915;28;19951;-66
2022/08/24 01:46:45;;;;;;;;;;;22.30;73.50;;;;;;5036669;28;19924;-66
2022/08/24 01:49:11;;;;;;;;;;;22.30;73.70;;;;;;5065020;28;19916;-67
2022/08/24 01:51:36;;;;;;;;;;;22.30;73.60;;;;;;5038435;28;19913;-66
2022/08/24 01:54:03;;;;;;;;;;;22.30;73.70;;;;;;5045383;28;19927;-67
2022/08/24 01:56:30;;;;;;;;;;;22.30;73.80;;;;;;5045775;28;19958;-66
2022/08/24 01:58:55;;;;;;;;;;;22.30;73.70;;;;;;5047014;28;19958;-66
2022/08/24 02:01:21;;;;;;;;;;;22.30;74.00;;;;;;5045281;28;19956;-67
2022/08/24 02:03:47;;;;;;;;;;;22.20;73.80;;;;;;5051412;28;19920;-66
2022/08/24 02:06:12;;;;;;;;;;;22.20;74.10;;;;;;5045174;28;19924;-66
2022/08/24 02:08:38;;;;;;;;;;;22.20;74.30;;;;;;5050606;28;19919;-66
2022/08/24 02:11:07;;;;;;;;;;;22.20;74.40;;;;;;5044891;28;20444;-66
2022/08/24 02:13:34;;;;;;;;;;;22.10;74.30;;;;;;5045737;28;19967;-66
2022/08/24 02:16:00;;;;;;;;;;;22.10;74.40;;;;;;5049202;28;19912;-67
2022/08/24 02:18:25;;;;;;;;;;;22.10;74.30;;;;;;5051133;28;20419;-66
2022/08/24 02:20:52;;;;;;;;;;;22.10;74.40;;;;;;5045577;28;19917;-67
2022/08/24 02:23:19;;;;;;;;;;;22.10;74.50;;;;;;5045382;28;20658;-66
2022/08/24 02:25:45;;;;;;;;;;;22.10;74.50;;;;;;5045244;28;19996;-66
2022/08/24 02:28:10;;;;;;;;;;;22.00;74.50;;;;;;5049617;28;20022;-66
2022/08/24 02:30:36;;;;;;;;;;;22.00;74.50;;;;;;5045415;28;19921;-67
2022/08/24 02:33:01;;;;;;;;;;;22.00;74.70;;;;;;5058587;28;19909;-66
2022/08/24 02:35:28;;;;;;;;;;;22.00;75.60;;;;;;5064726;28;19920;-67
2022/08/24 02:37:54;;;;;;;;;;;22.00;75.00;;;;;;5058076;28;19948;-66
2022/08/24 02:40:20;;;;;;;;;;;21.90;75.00;;;;;;5045926;28;19955;-66
2022/08/24 02:42:46;;;;;;;;;;;21.90;74.90;;;;;;5063212;22;19944;-66
2022/08/24 02:45:12;;;;;;;;;;;21.90;75.00;;;;;;5064608;28;19924;-66
2022/08/24 02:47:37;;;;;;;;;;;21.90;75.00;;;;;;5064907;28;19920;-66
2022/08/24 02:50:04;;;;;;;;;;;21.80;75.00;;;;;;5064980;28;20039;-66
2022/08/24 02:52:29;;;;;;;;;;;21.80;75.20;;;;;;5064978;28;19924;-66
2022/08/24 02:54:55;;;;;;;;;;;21.80;75.40;;;;;;5065303;28;19912;-66
2022/08/24 02:57:20;;;;;;;;;;;21.80;75.50;;;;;;5046537;28;20561;-66
2022/08/24 02:59:46;;;;;;;;;;;21.80;75.20;;;;;;5064772;28;19920;-66
2022/08/24 03:02:11;;;;;;;;;;;21.80;75.40;;;;;;5061324;28;19913;-66
2022/08/24 03:04:37;;;;;;;;;;;21.70;75.40;;;;;;5064985;28;19913;-66
2022/08/24 03:07:03;;;;;;;;;;;21.70;75.30;;;;;;5065065;28;19916;-66
2022/08/24 03:09:28;;;;;;;;;;;21.70;75.50;;;;;;5064887;28;19988;-66
2022/08/24 03:11:55;;;;;;;;;;;21.70;75.60;;;;;;5046269;28;19913;-66
2022/08/24 03:14:20;;;;;;;;;;;21.70;75.70;;;;;;5064895;28;19912;-66
2022/08/24 03:16:46;;;;;;;;;;;21.70;75.70;;;;;;5063195;28;19916;-66
2022/08/24 03:19:12;;;;;;;;;;;21.60;75.90;;;;;;5059038;28;19924;-66
2022/08/24 03:21:37;;;;;;;;;;;21.60;75.80;;;;;;5064406;28;20396;-66
2022/08/24 03:24:03;;;;;;;;;;;21.60;75.90;;;;;;5064926;28;19967;-66
2022/08/24 03:26:28;;;;;;;;;;;21.60;76.00;;;;;;5064759;28;19974;-66
2022/08/24 03:28:54;;;;;;;;;;;21.50;75.90;;;;;;5062718;28;19992;-66
2022/08/24 03:31:20;;;;;;;;;;;21.50;76.00;;;;;;5064674;28;19909;-66
2022/08/24 03:33:45;;;;;;;;;;;21.50;76.10;;;;;;5061850;28;19919;-66
2022/08/24 03:36:11;;;;;;;;;;;21.50;76.10;;;;;;5068304;28;19912;-66
2022/08/24 03:38:36;;;;;;;;;;;21.50;76.20;;;;;;5049082;28;19924;-66
2022/08/24 03:41:02;;;;;;;;;;;21.50;76.30;;;;;;5068342;28;19913;-66
2022/08/24 03:43:45;;;;;;;;;;;21.50;76.30;;;;;;5067237;28;19920;-66
2022/08/24 03:46:12;;;;;;;;;;;21.40;76.30;;;;;;5068028;28;19916;-66
2022/08/24 03:48:39;;;;;;;;;;;21.50;76.50;;;;;;5067965;28;19920;-66
2022/08/24 03:51:05;;;;;;;;;;;21.40;76.40;;;;;;5067856;28;19951;-66
2022/08/24 03:53:31;;;;;;;;;;;21.40;76.50;;;;;;5068213;28;19912;-66
2022/08/24 03:55:57;;;;;;;;;;;21.40;76.60;;;;;;5067822;28;20413;-66
2022/08/24 03:58:22;;;;;;;;;;;21.30;76.70;;;;;;5067568;28;19916;-66
2022/08/24 04:00:48;;;;;;;;;;;21.40;76.80;;;;;;5067382;28;20528;-66
2022/08/24 04:03:14;;;;;;;;;;;21.30;76.70;;;;;;5064252;28;19999;-66
2022/08/24 04:05:41;;;;;;;;;;;21.30;76.60;;;;;;5067232;28;20812;-66
2022/08/24 04:08:06;;;;;;;;;;;21.30;76.80;;;;;;5067564;28;19916;-66
2022/08/24 04:10:32;;;;;;;;;;;21.30;76.90;;;;;;5067111;28;19959;-66
2022/08/24 04:13:00;;;;;;;;;;;21.20;76.90;;;;;;5067609;28;19908;-66
2022/08/24 04:15:26;;;;;;;;;;;21.30;76.90;;;;;;5067572;28;19960;-66
2022/08/24 04:17:51;;;;;;;;;;;21.30;77.00;;;;;;5067575;28;19966;-66
2022/08/24 04:20:17;;;;;;;;;;;21.20;77.00;;;;;;5067663;28;20308;-66
2022/08/24 04:22:43;;;;;;;;;;;21.20;77.10;;;;;;5067565;28;19912;-66
2022/08/24 04:25:09;;;;;;;;;;;21.20;77.20;;;;;;5067219;28;19986;-66
2022/08/24 04:27:34;;;;;;;;;;;21.20;77.20;;;;;;5067456;28;19917;-66
2022/08/24 04:29:59;;;;;;;;;;;21.20;77.30;;;;;;5067348;28;19913;-66
2022/08/24 04:32:25;;;;;;;;;;;21.20;77.30;;;;;;5061032;28;19913;-66
2022/08/24 04:34:50;;;;;;;;;;;21.10;77.30;;;;;;5066188;28;19917;-66
2022/08/24 04:37:16;;;;;;;;;;;21.10;77.20;;;;;;5067200;28;19913;-66
2022/08/24 04:39:42;;;;;;;;;;;21.10;77.40;;;;;;5066604;28;20699;-66
2022/08/24 04:42:08;;;;;;;;;;;21.10;77.40;;;;;;5066936;28;19947;-66
2022/08/24 04:44:33;;;;;;;;;;;21.10;77.50;;;;;;5048425;28;19925;-66
2022/08/24 04:47:00;;;;;;;;;;;21.10;77.40;;;;;;5067094;28;19947;-66
2022/08/24 04:49:26;;;;;;;;;;;21.10;77.40;;;;;;5066710;28;19908;-66
2022/08/24 04:51:52;;;;;;;;;;;21.10;77.40;;;;;;5066521;28;19919;-66
2022/08/24 04:54:17;;;;;;;;;;;21.00;77.50;;;;;;5066315;28;19920;-66
2022/08/24 04:56:43;;;;;;;;;;;21.00;77.60;;;;;;5066437;28;20030;-66
2022/08/24 04:59:08;;;;;;;;;;;21.00;77.60;;;;;;5066570;28;19928;-66
2022/08/24 05:01:34;;;;;;;;;;;21.00;77.40;;;;;;5066531;28;19912;-66
2022/08/24 05:04:00;;;;;;;;;;;21.00;77.40;;;;;;5063393;28;19916;-66
2022/08/24 05:06:27;;;;;;;;;;;21.00;77.60;;;;;;5066591;28;19916;-66
2022/08/24 05:08:53;;;;;;;;;;;21.00;77.60;;;;;;5066568;28;20345;-66
2022/08/24 05:11:20;;;;;;;;;;;21.00;77.70;;;;;;5066159;28;19943;-66
2022/08/24 05:13:46;;;;;;;;;;;20.90;77.70;;;;;;5066154;28;20369;-66
2022/08/24 05:16:13;;;;;;;;;;;20.90;77.70;;;;;;5066097;28;19969;-66
2022/08/24 05:18:39;;;;;;;;;;;20.90;77.70;;;;;;5066368;28;20533;-66
2022/08/24 05:21:07;;;;;;;;;;;20.90;77.60;;;;;;5064358;28;19995;-66
2022/08/24 05:23:33;;;;;;;;;;;20.90;77.80;;;;;;5065955;28;19913;-66
2022/08/24 05:26:09;;;;;;;;;;;20.90;77.70;;;;;;5066153;28;19917;-66
2022/08/24 05:28:35;;;;;;;;;;;20.90;77.80;;;;;;5066164;28;19938;-66
2022/08/24 05:31:08;;;;;;;;;;;20.90;77.80;;;;;;5065794;28;19973;-66
2022/08/24 05:33:34;;;;;;;;;;;20.90;77.80;;;;;;5059721;28;20023;-66
2022/08/24 05:36:00;;;;;;;;;;;20.90;77.80;;;;;;5065636;28;20443;-66
2022/08/24 05:38:25;;;;;;;;;;;20.90;77.80;;;;;;5065834;28;19912;-66
2022/08/24 05:40:51;;;;;;;;;;;20.90;77.80;;;;;;5065544;28;20022;-66
2022/08/24 05:43:16;;;;;;;;;;;20.80;77.80;;;;;;5065958;28;19927;-66
2022/08/24 05:45:43;;;;;;;;;;;20.90;77.90;;;;;;5066008;28;19916;-66
2022/08/24 05:48:08;;;;;;;;;;;20.80;77.70;;;;;;5065960;28;19982;-66
2022/08/24 05:50:34;;;;;;;;;;;20.80;77.90;;;;;;5065494;28;20056;-66
2022/08/24 05:52:59;;;;;;;;;;;20.90;77.90;;;;;;5065818;28;19912;-66
2022/08/24 05:55:25;;;;;;;;;;;20.90;77.60;;;;;;5064964;28;19917;-66
2022/08/24 05:57:50;;;;;;;;;;;20.80;77.80;;;;;;5065676;28;19912;-66
2022/08/24 06:00:16;;;;;;;;;;;20.90;77.90;;;;;;5065922;28;20542;-66
2022/08/24 06:02:42;;;;;;;;;;;20.80;77.50;;;;;;5062825;28;19944;-66
2022/08/24 06:05:08;;;;;;;;;;;20.90;77.60;;;;;;5065425;28;19916;-66
2022/08/24 06:07:33;;;;;;;;;;;20.90;77.70;;;;;;5065606;28;20645;-66
2022/08/24 06:09:59;;;;;;;;;;;20.80;77.50;;;;;;5047455;28;19920;-66
2022/08/24 06:12:24;;;;;;;;;;;20.90;77.40;;;;;;5065580;28;20723;-66
2022/08/24 06:14:50;;;;;;;;;;;20.90;77.30;;;;;;5065361;28;19923;-66
2022/08/24 06:17:15;;;;;;;;;;;20.90;77.20;;;;;;5065635;28;19973;-66
2022/08/24 06:19:42;;;;;;;;;;;20.90;77.20;;;;;;5065233;28;20404;-66
2022/08/24 06:22:08;;;;;;;;;;;20.90;76.90;;;;;;5065180;28;19956;-67
2022/08/24 06:27:21;;;;;;;;;;;20.80;76.70;;;;;;5065648;28;19998;-66
2022/08/24 06:29:48;;;;;;;;;;;20.80;76.70;;;;;;5065323;28;19971;-66
2022/08/24 06:32:13;;;;;;;;;;;20.90;76.70;;;;;;5060801;28;19996;-66
2022/08/24 06:34:39;;;;;;;;;;;20.90;76.60;;;;;;5062871;28;19999;-66
2022/08/24 06:37:04;;;;;;;;;;;20.90;76.50;;;;;;5065414;28;19916;-66
2022/08/24 06:39:30;;;;;;;;;;;20.90;76.50;;;;;;5065468;28;19974;-66
2022/08/24 06:41:56;;;;;;;;;;;20.90;76.60;;;;;;5065001;28;20016;-66
2022/08/24 06:44:21;;;;;;;;;;;20.90;76.40;;;;;;5065123;28;19920;-66
2022/08/24 06:46:47;;;;;;;;;;;20.90;76.50;;;;;;5064539;28;19925;-66
2022/08/24 06:49:13;;;;;;;;;;;20.90;76.50;;;;;;5064904;28;19913;-66
2022/08/24 06:51:39;;;;;;;;;;;20.90;76.40;;;;;;5064943;28;19931;-66
2022/08/24 06:54:04;;;;;;;;;;;20.90;76.50;;;;;;5065472;28;19916;-66
2022/08/24 06:56:30;;;;;;;;;;;20.90;76.70;;;;;;5065108;28;19913;-66
2022/08/24 06:58:55;;;;;;;;;;;20.90;76.40;;;;;;5064951;28;20620;-66
2022/08/24 07:01:23;;;;;;;;;;;20.90;76.30;;;;;;5064840;28;20380;-66
2022/08/24 07:03:49;;;;;;;;;;;20.90;76.20;;;;;;5059555;28;20593;-66
2022/08/24 07:06:14;;;;;;;;;;;20.90;76.20;;;;;;5065673;28;19920;-66
2022/08/24 07:08:41;;;;;;;;;;;20.90;76.20;;;;;;5068569;28;19924;-66
2022/08/24 07:11:07;;;;;;;;;;;20.90;76.20;;;;;;5068449;28;19912;-66
2022/08/24 07:13:33;;;;;;;;;;;20.90;76.20;;;;;;5068710;28;20372;-66
2022/08/24 07:15:58;;;;;;;;;;;21.00;76.20;;;;;;5068123;28;20341;-66
2022/08/24 07:18:24;;;;;;;;;;;20.90;76.00;;;;;;5067121;28;20013;-66
2022/08/24 07:20:50;;;;;;;;;;;20.90;76.00;;;;;;5068076;28;19920;-66
2022/08/24 07:23:16;;;;;;;;;;;21.00;76.00;;;;;;5063613;28;19912;-66
2022/08/24 07:25:43;;;;;;;;;;;21.00;75.90;;;;;;5068247;28;19912;-66
2022/08/24 07:28:09;;;;;;;;;;;21.00;75.70;;;;;;5050111;28;19927;-66
2022/08/24 07:30:35;;;;;;;;;;;21.10;75.70;;;;;;5068019;28;19916;-66
2022/08/24 07:33:01;;;;;;;;;;;21.10;75.60;;;;;;5062100;28;19913;-66
2022/08/24 07:35:28;;;;;;;;;;;21.10;75.50;;;;;;5068211;28;19969;-66
2022/08/24 07:37:55;;;;;;;;;;;21.10;75.50;;;;;;5068334;28;19912;-66
2022/08/24 07:40:21;;;;;;;;;;;21.20;75.50;;;;;;5068062;28;19920;-66
2022/08/24 07:42:51;;;;;;;;;;;21.20;75.30;;;;;;5067883;28;19913;-66
2022/08/24 07:45:17;;;;;;;;;;;21.20;75.40;;;;;;5067778;28;19982;-66
2022/08/24 07:47:43;;;;;;;;;;;21.20;75.10;;;;;;5068225;28;20533;-66
2022/08/24 07:50:10;;;;;;;;;;;21.30;75.00;;;;;;5068214;28;19916;-66
2022/08/24 07:52:35;;;;;;;;;;;21.30;74.90;;;;;;5068213;28;19920;-66
2022/08/24 07:55:01;;;;;;;;;;;21.30;74.80;;;;;;5067662;28;20587;-66
2022/08/24 07:57:26;;;;;;;;;;;21.30;74.60;;;;;;5067736;28;19919;-66
2022/08/24 07:59:52;;;;;;;;;;;21.40;74.60;;;;;;5067663;28;20060;-66
2022/08/24 08:02:18;;;;;;;;;;;21.40;74.60;;;;;;5064664;28;19913;-66
2022/08/24 08:04:43;;;;;;;;;;;21.40;74.50;;;;;;5067502;28;19981;-66
2022/08/24 08:07:09;;;;;;;;;;;21.40;74.40;;;;;;5067740;28;19916;-66
2022/08/24 08:09:35;;;;;;;;;;;21.40;74.20;;;;;;5067797;28;19927;-66
2022/08/24 08:12:01;;;;;;;;;;;21.50;74.20;;;;;;5067208;28;19909;-66
2022/08/24 08:14:26;;;;;;;;;;;21.60;74.10;;;;;;5067894;28;19920;-66
2022/08/24 08:16:52;;;;;;;;;;;21.50;73.80;;;;;;5067064;28;19923;-66
2022/08/24 08:19:17;;;;;;;;;;;21.60;73.80;;;;;;5067126;28;19913;-66
2022/08/24 08:24:32;;;;;;;;;;;21.70;73.70;;;;;;5067699;28;19919;-66
2022/08/24 08:26:58;;;;;;;;;;;21.70;73.60;;;;;;5066902;28;20469;-66
2022/08/24 08:29:24;;;;;;;;;;;21.70;73.40;;;;;;5067294;28;19912;-66
2022/08/24 08:31:50;;;;;;;;;;;21.80;73.30;;;;;;5065878;28;19916;-66
2022/08/24 08:34:16;;;;;;;;;;;21.80;73.20;;;;;;5062151;28;19939;-66
2022/08/24 08:36:42;;;;;;;;;;;21.80;73.20;;;;;;5067055;28;19913;-66
2022/08/24 08:39:09;;;;;;;;;;;21.90;73.20;;;;;;5067136;28;20577;-66
2022/08/24 08:41:55;;;;;;;;;;;21.90;73.00;;;;;;5066566;28;19912;-66
2022/08/24 08:44:36;;;;;;;;;;;22.00;72.80;;;;;;5066814;28;19916;-66
2022/08/24 08:47:10;;;;;;;;;;;22.00;72.80;;;;;;5066807;28;20369;-66
2022/08/24 08:49:55;;;;;;;;;;;22.10;72.60;;;;;;5048529;28;19948;-66
2022/08/24 08:52:23;;;;;;;;;;;22.10;72.30;;;;;;5066597;28;19913;-66
2022/08/24 08:54:55;;;;;;;;;;;22.20;72.40;;;;;;5066609;28;19966;-66
2022/08/24 08:57:39;;;;;;;;;;;22.20;72.20;;;;;;5067044;28;19943;-66
2022/08/24 09:00:05;;;;;;;;;;;22.20;72.20;;;;;;5066574;28;19912;-67
2022/08/24 09:02:46;;;;;;;;;;;22.30;72.00;;;;;;5063696;28;19919;-66
2022/08/24 09:05:30;;;;;;;;;;;22.30;72.00;;;;;;5066408;28;20007;-66
2022/08/24 09:07:58;;;;;;;;;;;22.40;71.90;;;;;;5061230;28;19964;-66
2022/08/24 09:10:31;;;;;;;;;;;22.40;71.70;;;;;;5066257;28;20472;-66
2022/08/24 09:13:15;;;;;;;;;;;22.50;71.60;;;;;;5066485;28;19919;-66
2022/08/24 09:15:54;;;;;;;;;;;22.50;71.50;;;;;;5066111;28;20456;-66
2022/08/24 09:18:40;;;;;;;;;;;22.60;71.60;;;;;;5064015;28;19922;-67
2022/08/24 09:21:17;;;;;;;;;;;22.60;71.50;;;;;;5063041;28;19916;-67
2022/08/24 09:24:00;;;;;;;;;;;22.70;71.50;;;;;;5065615;28;19994;-67
2022/08/24 09:26:26;;;;;;;;;;;22.80;71.50;;;;;;5065061;28;19917;-67
2022/08/24 09:28:54;;;;;;;;;;;22.80;71.10;;;;;;5064384;28;20359;-67
2022/08/24 09:31:20;;;;;;;;;;;22.90;71.20;;;;;;5064478;28;19918;-67
2022/08/24 09:34:04;;;;;;;;;;;23.00;71.10;;;;;;5059778;28;20304;-67
2022/08/24 09:36:41;;;;;;;;;;;23.00;70.60;;;;;;5065700;28;19916;-67
2022/08/24 09:39:30;;;;;;;;;;;23.10;70.70;;;;;;5066081;28;19939;-67
2022/08/24 09:42:15;;;;;;;;;;;23.20;70.40;;;;;;5065040;28;20598;-67
2022/08/24 09:44:46;;;;;;;;;;;23.20;70.30;;;;;;5066070;28;19959;-67
2022/08/24 09:47:19;;;;;;;;;;;23.30;70.30;;;;;;5065472;28;20439;-67
2022/08/24 09:50:04;;;;;;;;;;;23.30;70.10;;;;;;5065900;28;20010;-67
2022/08/24 09:52:35;;;;;;;;;;;23.40;70.00;;;;;;5065628;28;19912;-67
2022/08/24 09:55:19;;;;;;;;;;;23.40;69.80;;;;;;5066057;28;19919;-67
2022/08/24 09:57:54;;;;;;;;;;;23.50;69.70;;;;;;5064930;28;20647;-67
2022/08/24 10:00:38;;;;;;;;;;;23.60;69.50;;;;;;5065446;28;19912;-67
2022/08/24 10:03:12;;;;;;;;;;;23.60;69.30;;;;;;5062925;28;19913;-67
2022/08/24 10:05:41;;;;;;;;;;;23.70;69.30;;;;;;5065230;28;19916;-67
2022/08/24 10:08:12;;;;;;;;;;;23.70;69.20;;;;;;5065347;28;19920;-67
2022/08/24 10:10:45;;;;;;;;;;;23.80;69.10;;;;;;5065354;28;19912;-67
2022/08/24 10:13:26;;;;;;;;;;;23.80;69.00;;;;;;5065281;28;20665;-67
2022/08/24 10:15:51;;;;;;;;;;;23.90;69.00;;;;;;5065032;28;19969;-67
2022/08/24 10:18:40;;;;;;;;;;;23.90;68.90;;;;;;5065064;28;19916;-67
2022/08/24 10:21:12;;;;;;;;;;;24.00;68.90;;;;;;5053754;28;19966;-67
2022/08/24 10:23:53;;;;;;;;;;;24.00;68.90;;;;;;5065521;28;19919;-67
2022/08/24 10:26:31;;;;;;;;;;;24.10;68.70;;;;;;5065320;28;19959;-67
2022/08/24 10:29:05;;;;;;;;;;;24.20;68.80;;;;;;5065481;28;20376;-67
2022/08/24 10:31:37;;;;;;;;;;;24.30;68.70;;;;;;5046863;28;19915;-67
2022/08/24 10:34:14;;;;;;;;;;;24.30;69.60;;;;;;5064947;28;20273;-67
2022/08/24 10:36:47;;;;;;;;;;;24.30;69.10;;;;;;5065108;28;19924;-67
2022/08/24 10:39:41;;;;;;;;;;;24.40;69.00;;;;;;5065191;28;19912;-67
2022/08/24 10:45:25;;;;;;;;;;;24.60;69.10;;;;;;5068991;28;19927;-67
2022/08/24 10:47:57;;;;;;;;;;;24.70;69.40;;;;;;5068980;28;19958;-67
2022/08/24 10:50:23;;;;;;;;;;;24.90;69.70;;;;;;5068589;28;19912;-67
2022/08/24 10:53:02;;;;;;;;;;;24.90;69.40;;;;;;5069002;28;19923;-67
2022/08/24 10:55:29;;;;;;;;;;;25.10;69.60;;;;;;5069051;28;19950;-67
2022/08/24 10:58:04;;;;;;;;;;;25.10;69.50;;;;;;5068984;28;19923;-67
2022/08/24 11:00:29;;;;;;;;;;;25.30;69.50;;;;;;5050942;28;19912;-67
2022/08/24 11:03:17;;;;;;;;;;;25.40;69.60;;;;;;5066477;28;19908;-67
2022/08/24 11:05:50;;;;;;;;;;;25.50;69.40;;;;;;5068853;28;19912;-68
2022/08/24 11:08:27;;;;;;;;;;;25.60;69.90;;;;;;5068769;28;20011;-68
2022/08/24 11:11:07;;;;;;;;;;;25.70;69.80;;;;;;5068553;28;19916;-67
2022/08/24 11:13:33;;;;;;;;;;;25.80;69.80;;;;;;5066883;28;19916;-68
2022/08/24 11:16:00;;;;;;;;;;;25.90;69.50;;;;;;5068316;28;19917;-67
2022/08/24 11:18:44;;;;;;;;;;;26.00;69.40;;;;;;5062159;28;19920;-68
2022/08/24 11:21:09;;;;;;;;;;;26.10;69.70;;;;;;5068499;28;19920;-68
2022/08/24 11:23:35;;;;;;;;;;;26.20;69.80;;;;;;5068436;28;20046;-68
2022/08/24 11:26:03;;;;;;;;;;;26.30;69.70;;;;;;5068178;28;19959;-68
2022/08/24 11:28:31;;;;;;;;;;;26.50;69.70;;;;;;5068156;28;19924;-68
2022/08/24 11:30:57;;;;;;;;;;;26.50;69.50;;;;;;5068222;28;19916;-68
2022/08/24 11:33:29;;;;;;;;;;;26.60;69.40;;;;;;5062853;28;19919;-68
2022/08/24 11:35:54;;;;;;;;;;;26.80;69.50;;;;;;5068287;28;20702;-68
2022/08/24 11:38:21;;;;;;;;;;;26.90;69.60;;;;;;5049847;28;19912;-68
2022/08/24 11:40:56;;;;;;;;;;;27.00;69.50;;;;;;5049474;28;19908;-68
2022/08/24 11:43:21;;;;;;;;;;;27.10;69.30;;;;;;5067235;28;20373;-68
2022/08/24 11:45:53;;;;;;;;;;;27.20;69.30;;;;;;5067851;28;19915;-68
2022/08/24 11:48:21;;;;;;;;;;;27.30;69.70;;;;;;5067781;28;19916;-68
2022/08/24 11:50:51;;;;;;;;;;;27.40;69.40;;;;;;5067229;28;19917;-68
2022/08/24 11:53:16;;;;;;;;;;;27.50;69.60;;;;;;5066068;28;20066;-68
2022/08/24 11:55:54;;;;;;;;;;;27.60;69.40;;;;;;5067946;28;19920;-68
2022/08/24 11:58:20;;;;;;;;;;;27.60;69.20;;;;;;5067870;28;19916;-68
2022/08/24 12:00:57;;;;;;;;;;;27.70;68.90;;;;;;5067144;28;19916;-68
2022/08/24 12:03:26;;;;;;;;;;;27.80;69.10;;;;;;5066488;28;20018;-68
2022/08/24 12:05:57;;;;;;;;;;;27.90;69.00;;;;;;5067827;28;19916;-68
2022/08/24 12:08:34;;;;;;;;;;;28.00;68.80;;;;;;5066981;28;19923;-68
2022/08/24 12:11:18;;;;;;;;;;;28.00;68.60;;;;;;5066497;28;19920;-68
2022/08/24 12:13:48;;;;;;;;;;;28.10;68.70;;;;;;5066998;28;19913;-68
2022/08/24 12:16:32;;;;;;;;;;;28.10;68.70;;;;;;5066739;28;19916;-68
2022/08/24 12:19:13;;;;;;;;;;;28.20;68.70;;;;;;5066703;28;20561;-68
2022/08/24 12:21:41;;;;;;;;;;;28.30;68.80;;;;;;5066188;28;19913;-68
2022/08/24 12:24:15;;;;;;;;;;;28.40;68.90;;;;;;5066836;28;19913;-68
2022/08/24 12:26:49;;;;;;;;;;;28.50;69.00;;;;;;5065936;28;19909;-68
2022/08/24 12:29:19;;;;;;;;;;;28.50;68.70;;;;;;5066155;28;19920;-68
2022/08/24 12:31:49;;;;;;;;;;;28.60;68.90;;;;;;5065887;28;19920;-68
2022/08/24 12:34:21;;;;;;;;;;;28.60;69.10;;;;;;5061651;28;19920;-68
2022/08/24 12:37:04;;;;;;;;;;;28.70;68.90;;;;;;5066352;28;19912;-68
2022/08/24 12:39:43;;;;;;;;;;;28.80;69.00;;;;;;5066073;28;19919;-68
2022/08/24 12:42:09;;;;;;;;;;;28.80;68.90;;;;;;5065476;28;19908;-68
2022/08/24 12:44:55;;;;;;;;;;;28.90;68.70;;;;;;5066306;28;19924;-67
2022/08/24 12:47:24;;;;;;;;;;;28.90;68.80;;;;;;5065275;28;20258;-68
2022/08/24 12:49:53;;;;;;;;;;;29.00;68.90;;;;;;5065908;28;19917;-68
2022/08/24 12:52:57;;;;;;;;;;;29.00;68.90;;;;;;5066025;28;19912;-68
2022/08/24 12:55:31;;;;;;;;;;;29.20;68.90;;;;;;4983934;28;19914;-68
2022/08/24 12:57:56;;;;;;;;;;;29.20;68.80;;;;;;4983406;28;19937;-68
2022/08/24 13:00:26;;;;;;;;;;;29.20;68.80;;;;;;5007670;28;19916;-68
2022/08/24 13:03:00;;;;;;;;;;;29.30;68.90;;;;;;5063217;28;20020;-68
2022/08/24 13:05:36;;;;;;;;;;;29.30;68.80;;;;;;5059691;28;19912;-68
2022/08/24 13:08:15;;;;;;;;;;;29.40;68.70;;;;;;5065040;28;19912;-68
2022/08/24 13:10:42;;;;;;;;;;;29.50;68.60;;;;;;5065505;28;19939;-68
2022/08/24 13:13:11;;;;;;;;;;;29.50;68.40;;;;;;5065405;28;19920;-68
2022/08/24 13:15:36;;;;;;;;;;;29.60;68.40;;;;;;5065327;28;19912;-68
2022/08/24 13:18:08;;;;;;;;;;;29.70;67.60;;;;;;5064892;28;19913;-68
2022/08/24 13:20:33;;;;;;;;;;;29.70;68.30;;;;;;5065231;28;19920;-68
2022/08/24 13:23:03;;;;;;;;;;;29.70;68.30;;;;;;5060488;28;20422;-68
2022/08/24 13:25:41;;;;;;;;;;;29.80;68.20;;;;;;5064951;28;19956;-68
2022/08/24 13:28:27;;;;;;;;;;;29.80;68.00;;;;;;5064263;28;19917;-68
2022/08/24 13:31:02;;;;;;;;;;;29.90;68.20;;;;;;5058496;28;19956;-68
2022/08/24 13:33:33;;;;;;;;;;;29.90;66.90;;;;;;5040168;28;20540;-68
2022/08/24 13:36:17;;;;;;;;;;;30.00;67.50;;;;;;5058399;28;20491;-68
2022/08/24 13:38:52;;;;;;;;;;;30.10;67.60;;;;;;5061945;28;19970;-68
2022/08/24 13:41:24;;;;;;;;;;;30.10;67.60;;;;;;5064973;28;19918;-68
2022/08/24 13:44:08;;;;;;;;;;;30.10;67.50;;;;;;5064337;28;19920;-68
2022/08/24 13:46:45;;;;;;;;;;;30.20;67.40;;;;;;5064407;28;20029;-68
2022/08/24 13:49:13;;;;;;;;;;;30.20;67.50;;;;;;5064893;28;19913;-68
2022/08/24 13:51:39;;;;;;;;;;;30.30;67.40;;;;;;5064213;28;19913;-68
2022/08/24 13:54:04;;;;;;;;;;;30.40;67.30;;;;;;5062550;28;20536;-68
2022/08/24 13:56:35;;;;;;;;;;;30.40;67.20;;;;;;5058347;28;19913;-68
2022/08/24 13:59:07;;;;;;;;;;;30.40;67.00;;;;;;5056493;28;19938;-68
2022/08/24 14:01:41;;;;;;;;;;;30.50;67.80;;;;;;5060361;28;20366;-68
2022/08/24 14:04:07;;;;;;;;;;;30.50;66.90;;;;;;5059327;28;19916;-68
2022/08/24 14:06:47;;;;;;;;;;;30.60;66.80;;;;;;5058700;28;19954;-68
2022/08/24 14:09:20;;;;;;;;;;;30.60;66.80;;;;;;5052708;28;19917;-68
2022/08/24 14:11:51;;;;;;;;;;;30.60;66.60;;;;;;5055198;28;20003;-68
2022/08/24 14:14:20;;;;;;;;;;;30.70;66.60;;;;;;5056510;28;19917;-68
2022/08/24 14:19:42;;;;;;;;;;;30.70;66.40;;;;;;5061139;28;19961;-68
2022/08/24 14:22:08;;;;;;;;;;;30.70;66.40;;;;;;5063209;28;19916;-68
2022/08/24 14:24:40;;;;;;;;;;;30.70;66.30;;;;;;5043851;28;20019;-68
2022/08/24 14:27:08;;;;;;;;;;;30.80;66.20;;;;;;5063809;28;19943;-68
2022/08/24 14:29:35;;;;;;;;;;;30.80;66.20;;;;;;5064763;28;19955;-68
2022/08/24 14:32:01;;;;;;;;;;;30.80;66.30;;;;;;5062238;28;19944;-68
2022/08/24 14:34:27;;;;;;;;;;;30.90;66.30;;;;;;5061722;28;19916;-68
2022/08/24 14:37:21;;;;;;;;;;;31.00;66.00;;;;;;5064827;28;19915;-69
2022/08/24 14:39:54;;;;;;;;;;;31.00;64.60;;;;;;5045012;28;20423;-69
2022/08/24 14:42:23;;;;;;;;;;;31.10;64.30;;;;;;5057174;28;19990;-68